sensor_id;sensor_type;location;lat;lon;timestamp;P1;durP1;ratioP1;P2;durP2;ratioP2
10463;SDS011;5279;42.048;24.638;2023-03-14T00:01:19;1.53;;;1.43;;
10463;SDS011;5279;42.048;24.638;2023-03-14T00:03:46;2.37;;;1.50;;
10463;SDS011;5279;42.048;24.638;2023-03-14T00:06:14;3.27;;;2.33;;
10463;SDS011;5279;42.048;24.638;2023-03-14T00:08:43;3.73;;;2.03;;
10463;SDS011;5279;42.048;24.638;2023-03-14T00:11:11;2.57;;;2.17;;
10463;SDS011;5279;42.048;24.638;2023-03-14T00:13:39;2.37;;;2.17;;
10463;SDS011;5279;42.048;24.638;2023-03-14T00:16:06;2.00;;;1.80;;
10463;SDS011;5279;42.048;24.638;2023-03-14T00:18:35;3.13;;;1.63;;
10463;SDS011;5279;42.048;24.638;2023-03-14T00:21:02;2.50;;;2.13;;
10463;SDS011;5279;42.048;24.638;2023-03-14T00:23:32;2.37;;;1.83;;
10463;SDS011;5279;42.048;24.638;2023-03-14T00:26:00;2.63;;;2.20;;
10463;SDS011;5279;42.048;24.638;2023-03-14T00:28:27;3.37;;;2.70;;
10463;SDS011;5279;42.048;24.638;2023-03-14T00:30:54;3.53;;;2.33;;
10463;SDS011;5279;42.048;24.638;2023-03-14T00:33:22;2.57;;;2.37;;
10463;SDS011;5279;42.048;24.638;2023-03-14T00:35:53;3.83;;;2.30;;
10463;SDS011;5279;42.048;24.638;2023-03-14T00:38:21;6.20;;;2.10;;
10463;SDS011;5279;42.048;24.638;2023-03-14T00:40:50;3.03;;;2.47;;
10463;SDS011;5279;42.048;24.638;2023-03-14T00:43:17;2.83;;;2.33;;
10463;SDS011;5279;42.048;24.638;2023-03-14T00:45:46;2.43;;;2.10;;
10463;SDS011;5279;42.048;24.638;2023-03-14T00:48:13;3.47;;;2.33;;
10463;SDS011;5279;42.048;24.638;2023-03-14T00:50:40;2.33;;;2.00;;
10463;SDS011;5279;42.048;24.638;2023-03-14T00:53:07;3.10;;;2.60;;
10463;SDS011;5279;42.048;24.638;2023-03-14T00:55:35;5.27;;;2.53;;
10463;SDS011;5279;42.048;24.638;2023-03-14T00:58:04;2.77;;;2.10;;
10463;SDS011;5279;42.048;24.638;2023-03-14T01:00:32;2.63;;;2.27;;
10463;SDS011;5279;42.048;24.638;2023-03-14T01:02:59;4.10;;;2.63;;
10463;SDS011;5279;42.048;24.638;2023-03-14T01:05:26;3.23;;;2.07;;
10463;SDS011;5279;42.048;24.638;2023-03-14T01:07:54;2.60;;;2.40;;
10463;SDS011;5279;42.048;24.638;2023-03-14T01:10:21;3.13;;;2.10;;
10463;SDS011;5279;42.048;24.638;2023-03-14T01:12:48;2.57;;;2.30;;
10463;SDS011;5279;42.048;24.638;2023-03-14T01:15:17;3.80;;;2.33;;
10463;SDS011;5279;42.048;24.638;2023-03-14T01:17:46;4.17;;;3.30;;
10463;SDS011;5279;42.048;24.638;2023-03-14T01:20:13;3.50;;;2.57;;
10463;SDS011;5279;42.048;24.638;2023-03-14T01:22:41;3.57;;;2.73;;
10463;SDS011;5279;42.048;24.638;2023-03-14T01:25:09;2.67;;;2.47;;
10463;SDS011;5279;42.048;24.638;2023-03-14T01:27:37;6.67;;;3.30;;
10463;SDS011;5279;42.048;24.638;2023-03-14T01:30:05;4.13;;;2.93;;
10463;SDS011;5279;42.048;24.638;2023-03-14T01:32:34;3.27;;;2.77;;
10463;SDS011;5279;42.048;24.638;2023-03-14T01:35:01;3.20;;;2.57;;
10463;SDS011;5279;42.048;24.638;2023-03-14T01:37:28;5.87;;;3.30;;
10463;SDS011;5279;42.048;24.638;2023-03-14T01:39:55;5.30;;;2.60;;
10463;SDS011;5279;42.048;24.638;2023-03-14T01:42:22;3.93;;;2.80;;
10463;SDS011;5279;42.048;24.638;2023-03-14T01:44:49;2.43;;;2.23;;
10463;SDS011;5279;42.048;24.638;2023-03-14T01:47:18;3.07;;;2.53;;
10463;SDS011;5279;42.048;24.638;2023-03-14T01:49:47;3.00;;;2.60;;
10463;SDS011;5279;42.048;24.638;2023-03-14T01:52:18;3.57;;;2.60;;
10463;SDS011;5279;42.048;24.638;2023-03-14T01:54:49;2.70;;;2.40;;
10463;SDS011;5279;42.048;24.638;2023-03-14T01:57:20;3.10;;;2.60;;
10463;SDS011;5279;42.048;24.638;2023-03-14T01:59:51;2.70;;;2.47;;
10463;SDS011;5279;42.048;24.638;2023-03-14T02:02:20;4.80;;;2.80;;
10463;SDS011;5279;42.048;24.638;2023-03-14T02:04:49;3.60;;;3.23;;
10463;SDS011;5279;42.048;24.638;2023-03-14T02:07:18;3.60;;;3.00;;
10463;SDS011;5279;42.048;24.638;2023-03-14T02:09:48;7.13;;;2.57;;
10463;SDS011;5279;42.048;24.638;2023-03-14T02:12:16;5.23;;;2.50;;
10463;SDS011;5279;42.048;24.638;2023-03-14T02:14:44;2.50;;;2.30;;
10463;SDS011;5279;42.048;24.638;2023-03-14T02:17:13;3.03;;;2.73;;
10463;SDS011;5279;42.048;24.638;2023-03-14T02:22:33;3.23;;;2.50;;
10463;SDS011;5279;42.048;24.638;2023-03-14T02:25:02;2.60;;;2.40;;
10463;SDS011;5279;42.048;24.638;2023-03-14T02:27:36;2.73;;;2.27;;
10463;SDS011;5279;42.048;24.638;2023-03-14T02:30:05;3.43;;;3.00;;
10463;SDS011;5279;42.048;24.638;2023-03-14T02:32:34;2.70;;;2.50;;
10463;SDS011;5279;42.048;24.638;2023-03-14T02:35:05;3.03;;;2.67;;
10463;SDS011;5279;42.048;24.638;2023-03-14T02:37:36;2.53;;;2.30;;
10463;SDS011;5279;42.048;24.638;2023-03-14T02:40:07;5.50;;;2.63;;
10463;SDS011;5279;42.048;24.638;2023-03-14T02:42:37;3.30;;;3.00;;
10463;SDS011;5279;42.048;24.638;2023-03-14T02:48:04;4.10;;;2.70;;
10463;SDS011;5279;42.048;24.638;2023-03-14T02:50:33;2.57;;;2.37;;
10463;SDS011;5279;42.048;24.638;2023-03-14T02:53:01;3.40;;;2.70;;
10463;SDS011;5279;42.048;24.638;2023-03-14T02:55:27;4.30;;;2.67;;
10463;SDS011;5279;42.048;24.638;2023-03-14T02:57:56;3.50;;;3.07;;
10463;SDS011;5279;42.048;24.638;2023-03-14T03:00:22;5.63;;;3.20;;
10463;SDS011;5279;42.048;24.638;2023-03-14T03:02:49;4.30;;;2.73;;
10463;SDS011;5279;42.048;24.638;2023-03-14T03:05:16;3.10;;;2.77;;
10463;SDS011;5279;42.048;24.638;2023-03-14T03:07:43;3.17;;;2.87;;
10463;SDS011;5279;42.048;24.638;2023-03-14T03:10:10;3.77;;;3.07;;
10463;SDS011;5279;42.048;24.638;2023-03-14T03:12:37;3.10;;;2.80;;
10463;SDS011;5279;42.048;24.638;2023-03-14T03:15:06;3.10;;;2.70;;
10463;SDS011;5279;42.048;24.638;2023-03-14T03:17:33;4.23;;;3.27;;
10463;SDS011;5279;42.048;24.638;2023-03-14T03:20:00;3.80;;;2.90;;
10463;SDS011;5279;42.048;24.638;2023-03-14T03:22:29;5.13;;;2.90;;
10463;SDS011;5279;42.048;24.638;2023-03-14T03:24:56;3.23;;;2.70;;
10463;SDS011;5279;42.048;24.638;2023-03-14T03:27:22;3.80;;;3.10;;
10463;SDS011;5279;42.048;24.638;2023-03-14T03:29:51;3.87;;;2.63;;
10463;SDS011;5279;42.048;24.638;2023-03-14T03:32:19;3.13;;;2.67;;
10463;SDS011;5279;42.048;24.638;2023-03-14T03:34:46;2.97;;;2.47;;
10463;SDS011;5279;42.048;24.638;2023-03-14T03:37:13;2.57;;;2.27;;
10463;SDS011;5279;42.048;24.638;2023-03-14T03:39:39;2.90;;;2.20;;
10463;SDS011;5279;42.048;24.638;2023-03-14T03:42:06;4.20;;;2.93;;
10463;SDS011;5279;42.048;24.638;2023-03-14T03:44:33;5.17;;;3.07;;
10463;SDS011;5279;42.048;24.638;2023-03-14T03:47:00;5.43;;;2.57;;
10463;SDS011;5279;42.048;24.638;2023-03-14T03:49:29;3.57;;;2.80;;
10463;SDS011;5279;42.048;24.638;2023-03-14T03:51:57;3.17;;;2.53;;
10463;SDS011;5279;42.048;24.638;2023-03-14T03:54:24;4.17;;;2.70;;
10463;SDS011;5279;42.048;24.638;2023-03-14T03:56:51;3.40;;;2.63;;
10463;SDS011;5279;42.048;24.638;2023-03-14T03:59:18;3.03;;;2.57;;
10463;SDS011;5279;42.048;24.638;2023-03-14T04:01:45;3.90;;;3.30;;
10463;SDS011;5279;42.048;24.638;2023-03-14T04:04:12;3.23;;;2.70;;
10463;SDS011;5279;42.048;24.638;2023-03-14T04:06:41;3.83;;;2.53;;
10463;SDS011;5279;42.048;24.638;2023-03-14T04:09:08;4.17;;;2.43;;
10463;SDS011;5279;42.048;24.638;2023-03-14T04:11:35;3.17;;;2.53;;
10463;SDS011;5279;42.048;24.638;2023-03-14T04:14:02;4.57;;;2.50;;
10463;SDS011;5279;42.048;24.638;2023-03-14T04:16:30;3.30;;;2.80;;
10463;SDS011;5279;42.048;24.638;2023-03-14T04:18:57;2.47;;;2.20;;
10463;SDS011;5279;42.048;24.638;2023-03-14T04:21:24;3.07;;;2.43;;
10463;SDS011;5279;42.048;24.638;2023-03-14T04:23:52;3.17;;;2.43;;
10463;SDS011;5279;42.048;24.638;2023-03-14T04:26:19;2.50;;;2.30;;
10463;SDS011;5279;42.048;24.638;2023-03-14T04:28:46;3.17;;;2.67;;
10463;SDS011;5279;42.048;24.638;2023-03-14T04:31:16;2.37;;;2.17;;
10463;SDS011;5279;42.048;24.638;2023-03-14T04:33:44;2.50;;;2.30;;
10463;SDS011;5279;42.048;24.638;2023-03-14T04:36:12;3.07;;;2.60;;
10463;SDS011;5279;42.048;24.638;2023-03-14T04:38:39;4.00;;;2.90;;
10463;SDS011;5279;42.048;24.638;2023-03-14T04:41:08;2.90;;;2.50;;
10463;SDS011;5279;42.048;24.638;2023-03-14T04:43:35;2.77;;;2.53;;
10463;SDS011;5279;42.048;24.638;2023-03-14T04:46:02;2.33;;;2.10;;
10463;SDS011;5279;42.048;24.638;2023-03-14T04:48:28;5.63;;;2.60;;
10463;SDS011;5279;42.048;24.638;2023-03-14T04:50:56;2.13;;;1.97;;
10463;SDS011;5279;42.048;24.638;2023-03-14T04:53:22;5.43;;;2.63;;
10463;SDS011;5279;42.048;24.638;2023-03-14T04:55:49;2.97;;;2.50;;
10463;SDS011;5279;42.048;24.638;2023-03-14T04:58:19;3.03;;;2.73;;
10463;SDS011;5279;42.048;24.638;2023-03-14T05:00:47;3.60;;;2.80;;
10463;SDS011;5279;42.048;24.638;2023-03-14T05:03:14;2.73;;;2.30;;
10463;SDS011;5279;42.048;24.638;2023-03-14T05:05:41;2.37;;;2.10;;
10463;SDS011;5279;42.048;24.638;2023-03-14T05:08:08;2.90;;;2.40;;
10463;SDS011;5279;42.048;24.638;2023-03-14T05:10:35;3.03;;;2.73;;
10463;SDS011;5279;42.048;24.638;2023-03-14T05:13:02;2.83;;;2.27;;
10463;SDS011;5279;42.048;24.638;2023-03-14T05:15:31;2.33;;;2.13;;
10463;SDS011;5279;42.048;24.638;2023-03-14T05:17:57;1.57;;;1.47;;
10463;SDS011;5279;42.048;24.638;2023-03-14T05:20:24;1.90;;;1.80;;
10463;SDS011;5279;42.048;24.638;2023-03-14T05:22:54;2.43;;;2.00;;
10463;SDS011;5279;42.048;24.638;2023-03-14T05:25:21;3.20;;;2.30;;
10463;SDS011;5279;42.048;24.638;2023-03-14T05:27:48;2.43;;;1.87;;
10463;SDS011;5279;42.048;24.638;2023-03-14T05:30:15;1.83;;;1.60;;
10463;SDS011;5279;42.048;24.638;2023-03-14T05:32:43;1.83;;;1.70;;
10463;SDS011;5279;42.048;24.638;2023-03-14T05:35:10;1.93;;;1.83;;
10463;SDS011;5279;42.048;24.638;2023-03-14T05:37:37;1.50;;;1.40;;
10463;SDS011;5279;42.048;24.638;2023-03-14T05:40:05;1.97;;;1.80;;
10463;SDS011;5279;42.048;24.638;2023-03-14T05:42:33;1.50;;;1.40;;
10463;SDS011;5279;42.048;24.638;2023-03-14T05:45:00;1.90;;;1.43;;
10463;SDS011;5279;42.048;24.638;2023-03-14T05:47:27;2.63;;;1.77;;
10463;SDS011;5279;42.048;24.638;2023-03-14T05:49:56;1.80;;;1.70;;
10463;SDS011;5279;42.048;24.638;2023-03-14T05:52:22;2.47;;;1.60;;
10463;SDS011;5279;42.048;24.638;2023-03-14T05:54:49;2.20;;;2.00;;
10463;SDS011;5279;42.048;24.638;2023-03-14T05:57:16;2.23;;;1.97;;
10463;SDS011;5279;42.048;24.638;2023-03-14T05:59:43;2.57;;;2.07;;
10463;SDS011;5279;42.048;24.638;2023-03-14T06:02:10;2.27;;;2.07;;
10463;SDS011;5279;42.048;24.638;2023-03-14T06:04:36;2.37;;;1.90;;
10463;SDS011;5279;42.048;24.638;2023-03-14T06:07:05;3.17;;;2.87;;
10463;SDS011;5279;42.048;24.638;2023-03-14T06:09:32;3.00;;;2.70;;
10463;SDS011;5279;42.048;24.638;2023-03-14T06:11:58;3.53;;;2.50;;
10463;SDS011;5279;42.048;24.638;2023-03-14T06:14:25;3.63;;;2.37;;
10463;SDS011;5279;42.048;24.638;2023-03-14T06:16:52;3.87;;;3.30;;
10463;SDS011;5279;42.048;24.638;2023-03-14T06:19:19;4.60;;;3.20;;
10463;SDS011;5279;42.048;24.638;2023-03-14T06:21:46;5.70;;;3.37;;
10463;SDS011;5279;42.048;24.638;2023-03-14T06:24:14;3.17;;;2.47;;
10463;SDS011;5279;42.048;24.638;2023-03-14T06:26:41;3.53;;;3.07;;
10463;SDS011;5279;42.048;24.638;2023-03-14T06:29:08;3.90;;;3.07;;
10463;SDS011;5279;42.048;24.638;2023-03-14T06:31:35;3.80;;;3.10;;
10463;SDS011;5279;42.048;24.638;2023-03-14T06:34:02;3.43;;;2.90;;
10463;SDS011;5279;42.048;24.638;2023-03-14T06:36:29;4.37;;;2.90;;
10463;SDS011;5279;42.048;24.638;2023-03-14T06:38:56;3.27;;;2.63;;
10463;SDS011;5279;42.048;24.638;2023-03-14T06:41:25;2.90;;;2.60;;
10463;SDS011;5279;42.048;24.638;2023-03-14T06:43:52;4.33;;;2.90;;
10463;SDS011;5279;42.048;24.638;2023-03-14T06:46:19;3.33;;;2.90;;
10463;SDS011;5279;42.048;24.638;2023-03-14T06:48:46;4.03;;;2.90;;
10463;SDS011;5279;42.048;24.638;2023-03-14T06:51:13;4.27;;;3.23;;
10463;SDS011;5279;42.048;24.638;2023-03-14T06:53:40;5.43;;;3.37;;
10463;SDS011;5279;42.048;24.638;2023-03-14T06:56:09;4.97;;;3.93;;
10463;SDS011;5279;42.048;24.638;2023-03-14T06:58:37;7.17;;;4.20;;
10463;SDS011;5279;42.048;24.638;2023-03-14T07:01:04;6.73;;;5.13;;
10463;SDS011;5279;42.048;24.638;2023-03-14T07:03:32;5.50;;;4.13;;
10463;SDS011;5279;42.048;24.638;2023-03-14T07:05:59;4.13;;;3.00;;
10463;SDS011;5279;42.048;24.638;2023-03-14T07:08:25;4.37;;;3.87;;
10463;SDS011;5279;42.048;24.638;2023-03-14T07:10:52;4.27;;;3.60;;
10463;SDS011;5279;42.048;24.638;2023-03-14T07:13:22;4.87;;;3.93;;
10463;SDS011;5279;42.048;24.638;2023-03-14T07:15:50;5.93;;;4.60;;
10463;SDS011;5279;42.048;24.638;2023-03-14T07:18:17;4.83;;;4.00;;
10463;SDS011;5279;42.048;24.638;2023-03-14T07:20:44;5.80;;;4.10;;
10463;SDS011;5279;42.048;24.638;2023-03-14T07:23:11;5.33;;;4.00;;
10463;SDS011;5279;42.048;24.638;2023-03-14T07:25:38;6.60;;;4.63;;
10463;SDS011;5279;42.048;24.638;2023-03-14T07:28:05;6.70;;;4.77;;
10463;SDS011;5279;42.048;24.638;2023-03-14T07:30:32;6.03;;;3.93;;
10463;SDS011;5279;42.048;24.638;2023-03-14T07:33:00;5.07;;;3.17;;
10463;SDS011;5279;42.048;24.638;2023-03-14T07:35:27;4.13;;;3.30;;
10463;SDS011;5279;42.048;24.638;2023-03-14T07:37:53;5.20;;;3.30;;
10463;SDS011;5279;42.048;24.638;2023-03-14T07:40:20;4.87;;;4.07;;
10463;SDS011;5279;42.048;24.638;2023-03-14T07:42:47;5.07;;;3.80;;
10463;SDS011;5279;42.048;24.638;2023-03-14T07:45:14;5.83;;;3.70;;
10463;SDS011;5279;42.048;24.638;2023-03-14T07:47:41;5.63;;;4.20;;
10463;SDS011;5279;42.048;24.638;2023-03-14T07:50:10;4.60;;;4.20;;
10463;SDS011;5279;42.048;24.638;2023-03-14T07:52:37;6.47;;;4.33;;
10463;SDS011;5279;42.048;24.638;2023-03-14T07:55:04;6.20;;;3.97;;
10463;SDS011;5279;42.048;24.638;2023-03-14T07:57:31;6.57;;;4.37;;
10463;SDS011;5279;42.048;24.638;2023-03-14T07:59:58;6.33;;;4.20;;
10463;SDS011;5279;42.048;24.638;2023-03-14T08:02:25;6.10;;;3.80;;
10463;SDS011;5279;42.048;24.638;2023-03-14T08:04:52;4.47;;;3.93;;
10463;SDS011;5279;42.048;24.638;2023-03-14T08:07:20;5.30;;;3.73;;
10463;SDS011;5279;42.048;24.638;2023-03-14T08:09:47;6.77;;;4.60;;
10463;SDS011;5279;42.048;24.638;2023-03-14T08:12:14;5.67;;;3.97;;
10463;SDS011;5279;42.048;24.638;2023-03-14T08:14:41;5.60;;;3.73;;
10463;SDS011;5279;42.048;24.638;2023-03-14T08:17:09;4.13;;;3.77;;
10463;SDS011;5279;42.048;24.638;2023-03-14T08:19:35;4.57;;;3.90;;
10463;SDS011;5279;42.048;24.638;2023-03-14T08:22:02;6.13;;;4.43;;
10463;SDS011;5279;42.048;24.638;2023-03-14T08:24:31;6.63;;;4.53;;
10463;SDS011;5279;42.048;24.638;2023-03-14T08:26:57;5.00;;;4.50;;
10463;SDS011;5279;42.048;24.638;2023-03-14T08:29:24;4.80;;;4.30;;
10463;SDS011;5279;42.048;24.638;2023-03-14T08:31:51;7.53;;;4.73;;
10463;SDS011;5279;42.048;24.638;2023-03-14T08:34:19;6.60;;;4.90;;
10463;SDS011;5279;42.048;24.638;2023-03-14T08:36:46;7.23;;;4.83;;
10463;SDS011;5279;42.048;24.638;2023-03-14T08:39:13;7.47;;;5.27;;
10463;SDS011;5279;42.048;24.638;2023-03-14T08:41:41;5.73;;;4.60;;
10463;SDS011;5279;42.048;24.638;2023-03-14T08:44:09;6.07;;;4.73;;
10463;SDS011;5279;42.048;24.638;2023-03-14T08:46:37;7.17;;;4.10;;
10463;SDS011;5279;42.048;24.638;2023-03-14T08:49:04;7.37;;;4.70;;
10463;SDS011;5279;42.048;24.638;2023-03-14T08:51:31;4.87;;;4.27;;
10463;SDS011;5279;42.048;24.638;2023-03-14T08:53:58;5.23;;;4.33;;
10463;SDS011;5279;42.048;24.638;2023-03-14T08:56:24;3.77;;;3.43;;
10463;SDS011;5279;42.048;24.638;2023-03-14T08:58:53;4.93;;;3.87;;
10463;SDS011;5279;42.048;24.638;2023-03-14T09:01:20;4.97;;;4.00;;
10463;SDS011;5279;42.048;24.638;2023-03-14T09:03:50;7.13;;;4.27;;
10463;SDS011;5279;42.048;24.638;2023-03-14T09:06:17;5.53;;;4.27;;
10463;SDS011;5279;42.048;24.638;2023-03-14T09:08:44;4.37;;;3.87;;
10463;SDS011;5279;42.048;24.638;2023-03-14T09:11:11;5.87;;;4.67;;
10463;SDS011;5279;42.048;24.638;2023-03-14T09:13:38;4.73;;;4.23;;
10463;SDS011;5279;42.048;24.638;2023-03-14T09:16:06;4.73;;;4.23;;
10463;SDS011;5279;42.048;24.638;2023-03-14T09:18:34;4.63;;;3.77;;
10463;SDS011;5279;42.048;24.638;2023-03-14T09:21:01;4.20;;;3.77;;
10463;SDS011;5279;42.048;24.638;2023-03-14T09:23:28;4.77;;;3.83;;
10463;SDS011;5279;42.048;24.638;2023-03-14T09:25:56;5.00;;;3.90;;
10463;SDS011;5279;42.048;24.638;2023-03-14T09:28:23;4.33;;;3.47;;
10463;SDS011;5279;42.048;24.638;2023-03-14T09:30:51;5.90;;;4.10;;
10463;SDS011;5279;42.048;24.638;2023-03-14T09:33:19;5.97;;;4.03;;
10463;SDS011;5279;42.048;24.638;2023-03-14T09:35:47;5.13;;;4.07;;
10463;SDS011;5279;42.048;24.638;2023-03-14T09:38:13;4.97;;;3.47;;
10463;SDS011;5279;42.048;24.638;2023-03-14T09:40:41;4.27;;;3.30;;
10463;SDS011;5279;42.048;24.638;2023-03-14T09:43:09;4.30;;;3.90;;
10463;SDS011;5279;42.048;24.638;2023-03-14T09:45:40;3.80;;;3.40;;
10463;SDS011;5279;42.048;24.638;2023-03-14T09:48:12;4.83;;;3.70;;
10463;SDS011;5279;42.048;24.638;2023-03-14T09:50:44;4.10;;;3.13;;
10463;SDS011;5279;42.048;24.638;2023-03-14T09:53:16;4.77;;;3.70;;
10463;SDS011;5279;42.048;24.638;2023-03-14T09:55:45;4.57;;;4.17;;
10463;SDS011;5279;42.048;24.638;2023-03-14T09:58:18;4.97;;;3.67;;
10463;SDS011;5279;42.048;24.638;2023-03-14T10:00:47;3.60;;;3.30;;
10463;SDS011;5279;42.048;24.638;2023-03-14T10:03:25;3.93;;;3.47;;
10463;SDS011;5279;42.048;24.638;2023-03-14T10:05:56;3.77;;;3.20;;
10463;SDS011;5279;42.048;24.638;2023-03-14T10:08:23;3.47;;;3.05;;
10463;SDS011;5279;42.048;24.638;2023-03-14T10:10:50;3.30;;;3.00;;
10463;SDS011;5279;42.048;24.638;2023-03-14T10:13:18;5.32;;;3.13;;
10463;SDS011;5279;42.048;24.638;2023-03-14T10:15:47;4.03;;;3.00;;
10463;SDS011;5279;42.048;24.638;2023-03-14T10:18:17;3.58;;;3.28;;
10463;SDS011;5279;42.048;24.638;2023-03-14T10:20:45;2.90;;;2.70;;
10463;SDS011;5279;42.048;24.638;2023-03-14T10:23:23;4.35;;;3.08;;
10463;SDS011;5279;42.048;24.638;2023-03-14T10:26:05;3.90;;;3.55;;
10463;SDS011;5279;42.048;24.638;2023-03-14T10:28:37;3.75;;;3.35;;
10463;SDS011;5279;42.048;24.638;2023-03-14T10:31:05;3.53;;;2.78;;
10463;SDS011;5279;42.048;24.638;2023-03-14T10:33:33;4.13;;;3.30;;
10463;SDS011;5279;42.048;24.638;2023-03-14T10:36:01;3.47;;;2.75;;
10463;SDS011;5279;42.048;24.638;2023-03-14T10:38:31;4.43;;;3.40;;
10463;SDS011;5279;42.048;24.638;2023-03-14T10:40:59;3.08;;;2.75;;
10463;SDS011;5279;42.048;24.638;2023-03-14T10:43:27;3.47;;;3.05;;
10463;SDS011;5279;42.048;24.638;2023-03-14T10:45:58;3.63;;;2.92;;
10463;SDS011;5279;42.048;24.638;2023-03-14T10:48:32;3.55;;;3.25;;
10463;SDS011;5279;42.048;24.638;2023-03-14T10:51:05;2.83;;;2.63;;
10463;SDS011;5279;42.048;24.638;2023-03-14T10:53:46;3.13;;;2.83;;
10463;SDS011;5279;42.048;24.638;2023-03-14T10:56:16;3.55;;;3.25;;
10463;SDS011;5279;42.048;24.638;2023-03-14T10:58:46;3.30;;;3.00;;
10463;SDS011;5279;42.048;24.638;2023-03-14T11:01:17;3.38;;;2.70;;
10463;SDS011;5279;42.048;24.638;2023-03-14T11:03:54;3.13;;;2.72;;
10463;SDS011;5279;42.048;24.638;2023-03-14T11:06:27;3.28;;;2.97;;
10463;SDS011;5279;42.048;24.638;2023-03-14T11:09:04;3.45;;;3.15;;
10463;SDS011;5279;42.048;24.638;2023-03-14T11:11:37;3.00;;;2.70;;
10463;SDS011;5279;42.048;24.638;2023-03-14T11:14:14;3.10;;;2.80;;
10463;SDS011;5279;42.048;24.638;2023-03-14T11:16:52;4.50;;;2.65;;
10463;SDS011;5279;42.048;24.638;2023-03-14T11:22:24;2.58;;;2.38;;
10463;SDS011;5279;42.048;24.638;2023-03-14T11:25:07;5.13;;;3.17;;
10463;SDS011;5279;42.048;24.638;2023-03-14T11:27:43;2.90;;;2.70;;
10463;SDS011;5279;42.048;24.638;2023-03-14T11:30:17;3.40;;;2.75;;
10463;SDS011;5279;42.048;24.638;2023-03-14T11:32:49;2.60;;;2.40;;
10463;SDS011;5279;42.048;24.638;2023-03-14T11:35:23;2.83;;;2.63;;
10463;SDS011;5279;42.048;24.638;2023-03-14T11:37:54;2.80;;;2.60;;
10463;SDS011;5279;42.048;24.638;2023-03-14T11:40:29;2.60;;;2.40;;
10463;SDS011;5279;42.048;24.638;2023-03-14T11:43:04;2.60;;;2.40;;
10463;SDS011;5279;42.048;24.638;2023-03-14T11:45:38;3.60;;;2.65;;
10463;SDS011;5279;42.048;24.638;2023-03-14T11:48:11;2.28;;;2.08;;
10463;SDS011;5279;42.048;24.638;2023-03-14T11:50:44;2.67;;;2.40;;
10463;SDS011;5279;42.048;24.638;2023-03-14T11:53:16;2.55;;;2.35;;
10463;SDS011;5279;42.048;24.638;2023-03-14T11:55:47;2.88;;;2.53;;
10463;SDS011;5279;42.048;24.638;2023-03-14T11:58:16;2.83;;;2.63;;
10463;SDS011;5279;42.048;24.638;2023-03-14T12:00:48;3.08;;;2.78;;
10463;SDS011;5279;42.048;24.638;2023-03-14T12:03:20;2.85;;;2.58;;
10463;SDS011;5279;42.048;24.638;2023-03-14T12:05:53;3.15;;;2.85;;
10463;SDS011;5279;42.048;24.638;2023-03-14T12:08:32;2.95;;;2.70;;
10463;SDS011;5279;42.048;24.638;2023-03-14T12:11:09;2.72;;;2.53;;
10463;SDS011;5279;42.048;24.638;2023-03-14T12:13:40;3.20;;;2.85;;
10463;SDS011;5279;42.048;24.638;2023-03-14T12:16:20;3.60;;;2.47;;
10463;SDS011;5279;42.048;24.638;2023-03-14T12:18:58;4.50;;;2.83;;
10463;SDS011;5279;42.048;24.638;2023-03-14T12:21:45;3.13;;;2.85;;
10463;SDS011;5279;42.048;24.638;2023-03-14T12:24:17;2.72;;;2.53;;
10463;SDS011;5279;42.048;24.638;2023-03-14T12:26:52;3.20;;;2.90;;
10463;SDS011;5279;42.048;24.638;2023-03-14T12:29:20;3.92;;;2.97;;
10463;SDS011;5279;42.048;24.638;2023-03-14T12:31:48;2.58;;;2.38;;
10463;SDS011;5279;42.048;24.638;2023-03-14T12:34:26;2.95;;;2.50;;
10463;SDS011;5279;42.048;24.638;2023-03-14T12:36:56;2.85;;;2.65;;
10463;SDS011;5279;42.048;24.638;2023-03-14T12:39:35;4.60;;;2.60;;
10463;SDS011;5279;42.048;24.638;2023-03-14T12:42:12;2.50;;;2.30;;
10463;SDS011;5279;42.048;24.638;2023-03-14T12:44:43;3.25;;;2.70;;
10463;SDS011;5279;42.048;24.638;2023-03-14T12:50:14;2.67;;;2.47;;
10463;SDS011;5279;42.048;24.638;2023-03-14T12:52:50;3.35;;;2.70;;
10463;SDS011;5279;42.048;24.638;2023-03-14T12:55:43;2.63;;;2.40;;
10463;SDS011;5279;42.048;24.638;2023-03-14T12:58:17;3.78;;;2.80;;
10463;SDS011;5279;42.048;24.638;2023-03-14T13:00:54;2.63;;;2.42;;
10463;SDS011;5279;42.048;24.638;2023-03-14T13:03:24;8.25;;;5.45;;
10463;SDS011;5279;42.048;24.638;2023-03-14T13:05:54;10.75;;;7.35;;
10463;SDS011;5279;42.048;24.638;2023-03-14T13:08:33;7.03;;;4.50;;
10463;SDS011;5279;42.048;24.638;2023-03-14T13:11:02;3.85;;;3.25;;
10463;SDS011;5279;42.048;24.638;2023-03-14T13:13:35;2.83;;;2.63;;
10463;SDS011;5279;42.048;24.638;2023-03-14T13:16:09;6.72;;;4.78;;
10463;SDS011;5279;42.048;24.638;2023-03-14T13:18:41;8.43;;;5.28;;
10463;SDS011;5279;42.048;24.638;2023-03-14T13:21:11;4.43;;;3.60;;
10463;SDS011;5279;42.048;24.638;2023-03-14T13:23:42;3.78;;;3.35;;
10463;SDS011;5279;42.048;24.638;2023-03-14T13:26:21;6.00;;;3.92;;
10463;SDS011;5279;42.048;24.638;2023-03-14T13:28:53;4.03;;;2.97;;
10463;SDS011;5279;42.048;24.638;2023-03-14T13:31:21;3.63;;;2.78;;
10463;SDS011;5279;42.048;24.638;2023-03-14T13:33:57;3.30;;;3.00;;
10463;SDS011;5279;42.048;24.638;2023-03-14T13:36:25;4.18;;;3.38;;
10463;SDS011;5279;42.048;24.638;2023-03-14T13:38:56;9.13;;;5.03;;
10463;SDS011;5279;42.048;24.638;2023-03-14T13:41:24;6.43;;;3.67;;
10463;SDS011;5279;42.048;24.638;2023-03-14T13:43:53;7.32;;;3.90;;
10463;SDS011;5279;42.048;24.638;2023-03-14T13:46:27;3.33;;;2.80;;
10463;SDS011;5279;42.048;24.638;2023-03-14T13:48:54;3.17;;;2.50;;
10463;SDS011;5279;42.048;24.638;2023-03-14T13:51:24;3.58;;;2.50;;
10463;SDS011;5279;42.048;24.638;2023-03-14T13:53:54;3.25;;;2.60;;
10463;SDS011;5279;42.048;24.638;2023-03-14T13:56:22;2.83;;;2.42;;
10463;SDS011;5279;42.048;24.638;2023-03-14T13:58:50;2.95;;;2.67;;
10463;SDS011;5279;42.048;24.638;2023-03-14T14:01:19;2.58;;;2.38;;
10463;SDS011;5279;42.048;24.638;2023-03-14T14:03:49;2.40;;;2.20;;
10463;SDS011;5279;42.048;24.638;2023-03-14T14:06:21;2.80;;;2.50;;
10463;SDS011;5279;42.048;24.638;2023-03-14T14:08:53;2.53;;;2.27;;
10463;SDS011;5279;42.048;24.638;2023-03-14T14:11:22;3.47;;;2.57;;
10463;SDS011;5279;42.048;24.638;2023-03-14T14:13:58;3.00;;;2.33;;
10463;SDS011;5279;42.048;24.638;2023-03-14T14:16:27;3.63;;;2.33;;
10463;SDS011;5279;42.048;24.638;2023-03-14T14:18:56;2.53;;;2.23;;
10463;SDS011;5279;42.048;24.638;2023-03-14T14:24:28;2.33;;;2.10;;
10463;SDS011;5279;42.048;24.638;2023-03-14T14:26:59;2.50;;;2.20;;
10463;SDS011;5279;42.048;24.638;2023-03-14T14:29:28;2.33;;;2.13;;
10463;SDS011;5279;42.048;24.638;2023-03-14T14:32:01;2.30;;;2.10;;
10463;SDS011;5279;42.048;24.638;2023-03-14T14:34:30;2.17;;;1.97;;
10463;SDS011;5279;42.048;24.638;2023-03-14T14:37:05;3.53;;;2.40;;
10463;SDS011;5279;42.048;24.638;2023-03-14T14:39:41;2.43;;;2.00;;
10463;SDS011;5279;42.048;24.638;2023-03-14T14:42:12;2.53;;;2.33;;
10463;SDS011;5279;42.048;24.638;2023-03-14T14:44:40;3.07;;;2.47;;
10463;SDS011;5279;42.048;24.638;2023-03-14T14:47:13;2.50;;;2.30;;
10463;SDS011;5279;42.048;24.638;2023-03-14T14:49:43;2.50;;;2.30;;
10463;SDS011;5279;42.048;24.638;2023-03-14T14:52:11;2.67;;;2.10;;
10463;SDS011;5279;42.048;24.638;2023-03-14T14:54:42;3.90;;;2.33;;
10463;SDS011;5279;42.048;24.638;2023-03-14T14:57:18;2.63;;;2.17;;
10463;SDS011;5279;42.048;24.638;2023-03-14T14:59:48;2.60;;;2.30;;
10463;SDS011;5279;42.048;24.638;2023-03-14T15:02:30;3.13;;;1.83;;
10463;SDS011;5279;42.048;24.638;2023-03-14T15:05:03;2.13;;;1.93;;
10463;SDS011;5279;42.048;24.638;2023-03-14T15:07:30;3.10;;;2.40;;
10463;SDS011;5279;42.048;24.638;2023-03-14T15:09:57;1.77;;;1.60;;
10463;SDS011;5279;42.048;24.638;2023-03-14T15:12:24;3.47;;;2.20;;
10463;SDS011;5279;42.048;24.638;2023-03-14T15:14:51;3.53;;;1.90;;